Nearby METAR Reports

 

KAPA - Denver/Arapahoe, Colorado, USA
Distance from station: W 7mi, 11km
Updated: Thu, 29-Feb-2024 6:53pm MST
Few Clouds
Few Clouds
 Wind from calm
Wind: Calm
Temperature: 48°F , 9°C
Dew Point: 7°F , -14°C
Humidity: 18%
Barometer: 29.87 inHg , 1011.5 hPa
Clouds: Few Clouds
Visibility: 10 miles , 16 km
Cloud details: Few Clouds 8000 ft
2024/03/01 01:53 KAPA 010153Z 00000KT 10SM FEW080 09/M14 A2987 RMK AO2 SLP114 T00941139
KBKF - Buckley Angb/Den, Colorado, USA
Distance from station: N 11mi, 17km
Updated: Thu, 29-Feb-2024 5:58pm MST
Few Clouds
Few Clouds
 Wind from NNW
Wind: NNW 8 mph , 13 km/h
Temperature: 52°F , 11°C
Dew Point: 5°F , -15°C
Humidity: 15%
Barometer: 29.84 inHg , 1010.5 hPa
Clouds: Few Clouds
Visibility: 10 miles , 16 km
Cloud details: Few Clouds 14000 ft
2024/03/01 00:58 KBKF 010058Z 33007KT 10SM FEW140 11/M15 A2984 RMK AO2A SLP085 T01061150
 
KCFO - Denver Space Por, Colorado, USA
Distance from station: NNE 18mi, 29km
Updated: Thu, 29-Feb-2024 6:47pm MST
Clear
Clear
 Wind from NW
Wind: NW 6 mph , 9 km/h
Temperature: 48°F , 9°C
Wind Chill: 45°F , 7°C
Dew Point: 7°F , -14°C
Humidity: 18%
Barometer: 29.87 inHg , 1011.5 hPa
Clouds: Clear
Visibility: 10 miles , 16 km
2024/03/01 01:47 KCFO 010147Z 32005KT 10SM SKC 09/M14 A2987
KDEN - Denver (dia), Colorado, USA
Distance from station: N 20mi, 32km
Updated: Thu, 29-Feb-2024 6:53pm MST
Few Clouds
Few Clouds
 Wind from NW
Wind: NW 15 mph , 24 km/h
Temperature: 54°F , 12°C
Dew Point: 7°F , -14°C
Humidity: 15%
Barometer: 29.84 inHg , 1010.5 hPa
Clouds: Few Clouds
Visibility: 10 miles , 16 km
Cloud details: Few Clouds 13000 ft
2024/03/01 01:53 KDEN 010153Z 32013KT 10SM FEW130 12/M14 A2984 RMK AO2 SLP088 T01171144
 
KBJC - Broomfield/Jeffc, Colorado, USA
Distance from station: NW 31mi, 49km
Updated: Thu, 29-Feb-2024 6:50pm MST
Clear
Clear
 Wind from WNW
Wind: WNW 17 mph , 28 km/h
Temperature: 50°F , 10°C
Wind Chill: 44°F , 7°C
Dew Point: 1°F , -17°C
Humidity: 13%
Barometer: 29.87 inHg , 1011.5 hPa
Clouds: Clear
Visibility: 10 miles , 16 km
2024/03/01 01:50 KBJC 010150Z 29015KT 10SM SKC 10/M17 A2987
KEIK - Erie Muni, Colorado, USA
Distance from station: NNW 36mi, 58km
Updated: Thu, 29-Feb-2024 6:35pm MST
Clear
Clear
 Wind from WSW
Wind: WSW 9 mph , 15 km/h
Temperature: 54°F , 12°C
Dew Point: -0°F , -18°C
Humidity: 11%
Barometer: 29.85 inHg , 1010.8 hPa
Clouds: Clear
Visibility: 10 miles , 16 km
2024/03/01 01:35 KEIK 010135Z AUTO 24008KT 10SM CLR 12/M18 A2985 RMK AO2 T01151180
 
KAFF - Usaf Academy/Cos, Colorado, USA
Distance from station: S 42mi, 67km
Updated: Thu, 29-Feb-2024 5:55pm MST
Clear
Clear
 Wind from W
Wind: W 17 mph , 28 km/h, Gust: 22 mph , 35 km/h
Temperature: 52°F , 11°C
Dew Point: -2°F , -19°C
Humidity: 10%
Barometer: 29.87 inHg , 1011.5 hPa
Clouds: Clear
Visibility: 10 miles , 16 km
2024/03/01 00:55 KAFF 010055Z AUTO 28015G19KT 10SM CLR 11/M19 A2987 RMK AO2 SLP108 T01141192
KBDU - Boulder Muni, Colorado, USA
Distance from station: NW 42mi, 68km
Updated: Thu, 29-Feb-2024 6:35pm MST
Clear
Clear
 Wind from SW
Wind: SW 3 mph , 6 km/h
Temperature: 54°F , 12°C
Dew Point: 5°F , -15°C
Humidity: 14%
Barometer: 29.86 inHg , 1011.2 hPa
Clouds: Clear
Visibility: 10 miles , 16 km
2024/03/01 01:35 KBDU 010135Z AUTO 23003KT 10SM CLR 12/M15 A2986 RMK AO2
 
KFLY - Co Spngs Meadow, Colorado, USA
Distance from station: SSE 43mi, 70km
Updated: Thu, 29-Feb-2024 6:35pm MST
Clear
Clear
 Wind from NNW
Wind: NNW 6 mph , 9 km/h
Temperature: 43°F , 6°C
Wind Chill: 39°F , 4°C
Dew Point: 12°F , -11°C
Humidity: 29%
Barometer: 29.92 inHg , 1013.2 hPa
Clouds: Clear
Visibility: 10 miles , 16 km
2024/03/01 01:35 KFLY 010135Z AUTO 33005KT 10SM CLR 06/M11 A2992 RMK AO2 T00561115
KLMO - Longmont/Vbrand, Colorado, USA
Distance from station: NNW 48mi, 77km
Updated: Thu, 29-Feb-2024 6:35pm MST
Clear
Clear
 Wind from WSW
Wind: WSW 14 mph , 22 km/h
Temperature: 57°F , 14°C
Dew Point: 3°F , -16°C
Humidity: 11%
Barometer: 29.86 inHg , 1011.2 hPa
Clouds: Clear
Visibility: 10 miles , 16 km
2024/03/01 01:35 KLMO 010135Z AUTO 25012KT 10SM CLR 14/M16 A2986 RMK AO2 T01351161
 
KCOS - Colorado Springs, Colorado, USA
Distance from station: S 52mi, 83km
Updated: Thu, 29-Feb-2024 5:54pm MST
Few Clouds
Few Clouds
 Wind from WNW
Wind: WNW 8 mph , 13 km/h
Temperature: 55°F , 13°C
Dew Point: 3°F , -16°C
Humidity: 12%
Barometer: 29.88 inHg , 1011.9 hPa
Clouds: Few Clouds
Visibility: 10 miles , 16 km
Cloud details: Few Clouds 1000 ft
Few Clouds 14000 ft
2024/03/01 00:54 KCOS 010054Z 30007KT 10SM FEW010 FEW140 13/M16 A2988 RMK AO2 SLP107 T01331156
KSHM - Schriever Afb, Colorado, USA
Distance from station: SSE 54mi, 87km
Updated: Thu, 29-Feb-2024 5:55pm MST
Clear
Clear
 Wind from E
Wind: E 3 mph , 6 km/h
Temperature: 52°F , 11°C
Dew Point: 10°F , -12°C
Humidity: 19%
Barometer: 29.84 inHg , 1010.5 hPa
Clouds: Clear
Visibility: 10 miles , 16 km
2024/03/01 00:55 KSHM 010055Z AUTO 10003KT 10SM CLR 11/M12 A2984 RMK AO2 SLP103 T01121123 $
 
K4BM - Wilkerson Pass, Colorado, USA
Distance from station: SW 55mi, 89km
Updated: Thu, 29-Feb-2024 6:35pm MST
Clear
Clear
 Wind from S
Wind: S 12 mph , 19 km/h, Gust: 17 mph , 28 km/h
Temperature: 30°F , -1°C
Wind Chill: 20°F , -7°C
Dew Point: 3°F , -16°C
Humidity: 31%
Barometer: 30.07 inHg , 1018.3 hPa
Clouds: Clear
Visibility: 10 miles , 16 km
2024/03/01 01:35 K4BM 010135Z AUTO 17010G15KT 10SM CLR M01/M16 A3007 RMK AO2
KCWN - Cheyenne Mtn, Colorado, USA
Distance from station: S 57mi, 91km
Updated: Thu, 29-Feb-2024 5:55pm MST
Clear
Clear
 Wind from NW
Wind: NW 7 mph , 11 km/h
Temperature: 50°F , 10°C
Wind Chill: 47°F , 8°C
Dew Point: 7°F , -14°C
Humidity: 17%
Barometer: 29.88 inHg , 1011.9 hPa
Clouds: Clear
Visibility: 10 miles , 16 km
2024/03/01 00:55 KCWN 010055Z AUTO 32006KT 10SM CLR 10/M14 A2988 RMK AO2 SLP003 T00961143 $
 
K0CO - Berthoud Pass, Colorado, USA
Distance from station: WNW 58mi, 93km
Updated: Thu, 29-Feb-2024 6:35pm MST
Clear
Clear
 Wind from WNW
Wind: WNW 24 mph , 39 km/h, Gust: 35 mph , 56 km/h
Temperature: 19°F , -7°C
Wind Chill: 2°F , -17°C
Dew Point: -8°F , -22°C
Humidity: 29%
Barometer: 30.03 inHg , 1016.9 hPa
Clouds: Clear
2024/03/01 01:35 K0CO 010135Z AUTO 30021G30KT CLR M07/M22 A3003 RMK AO2 PWINO
KGXY - Greeley/Weld, Colorado, USA
Distance from station: N 59mi, 95km
Updated: Thu, 29-Feb-2024 5:56pm MST
Clear
Clear
 Wind from ENE
Wind: ENE 3 mph , 6 km/h
Temperature: 55°F , 13°C
Dew Point: 16°F , -9°C
Humidity: 21%
Barometer: 29.83 inHg , 1010.2 hPa
Clouds: Clear
Visibility: 8 miles , 13 km
2024/03/01 00:56 KGXY 010056Z 06003KT 8SM CLR 13/M09 A2983 RMK AO2 SLP119 T01281089
 
KABH - Ellicott-B Afa, Colorado, USA
Distance from station: SSE 60mi, 96km
Updated: Thu, 29-Feb-2024 5:55pm MST
Clear
Clear
 Wind from SE
Wind: SE 9 mph , 15 km/h
Temperature: 45°F , 7°C
Wind Chill: 40°F , 4°C
Dew Point: 18°F , -8°C
Humidity: 34%
Barometer: 29.88 inHg , 1011.9 hPa
Clouds: Clear
Visibility: 10 miles , 16 km
2024/03/01 00:55 KABH 010055Z AUTO 14008KT 10SM CLR 07/M08 A2988 RMK AO2 SLP143 T00681080
KLIC - Limon, Colorado, USA
Distance from station: ESE 60mi, 97km
Updated: Thu, 29-Feb-2024 5:55pm MST
Clear
Clear
 Wind from NE
Wind: NE 3 mph , 6 km/h
Temperature: 46°F , 8°C
Dew Point: 9°F , -13°C
Humidity: 21%
Barometer: 29.84 inHg , 1010.5 hPa
Clouds: Clear
Visibility: 10 miles , 16 km
2024/03/01 00:55 KLIC 010055Z AUTO 04003KT 10SM CLR 08/M13 A2984 RMK AO2 SLP120 T00781128
 
KFCS - Fort Carson, Colorado, USA
Distance from station: S 62mi, 100km
Updated: Thu, 29-Feb-2024 5:55pm MST
Clear
Clear
 Wind from NNW
Wind: NNW 8 mph , 13 km/h
Temperature: 52°F , 11°C
Dew Point: 3°F , -16°C
Humidity: 13%
Barometer: 29.83 inHg , 1010.2 hPa
Clouds: Clear
Visibility: 10 miles , 16 km
2024/03/01 00:55 KFCS 010055Z AUTO 34007KT 10SM CLR 11/M16 A2983 RMK AO2 SLP119 T01061158 $
KFNL - Ft Collins/Lovel, Colorado, USA
Distance from station: NNW 63mi, 102km
Updated: Thu, 29-Feb-2024 5:56pm MST
Clear
Clear
 Wind from W
Wind: W 13 mph , 20 km/h
Temperature: 54°F , 12°C
Dew Point: 10°F , -12°C
Humidity: 18%
Barometer: 29.83 inHg , 1010.2 hPa
Clouds: Clear
Visibility: 10 miles , 16 km
2024/03/01 00:56 KFNL 010056Z 27011KT 10SM CLR 12/M12 A2983 RMK AO2 SLP096 T01221122